sensor_id;sensor_type;location;lat;lon;timestamp;pressure;altitude;pressure_sealevel;temperature;humidity
65384;BME280;51986;52.788;41.368;2023-02-15T00:00:31;98867.88;;;-5.40;63.77
65384;BME280;51986;52.788;41.368;2023-02-15T00:02:58;98870.31;;;-5.35;64.58
65384;BME280;51986;52.788;41.368;2023-02-15T00:05:25;98897.53;;;-5.43;64.52
65384;BME280;51986;52.788;41.368;2023-02-15T00:07:52;98875.09;;;-5.11;63.38
65384;BME280;51986;52.788;41.368;2023-02-15T00:10:19;98878.47;;;-5.02;63.18
65384;BME280;51986;52.788;41.368;2023-02-15T00:12:46;98884.94;;;-5.13;62.86
65384;BME280;51986;52.788;41.368;2023-02-15T00:15:13;98897.94;;;-5.18;64.21
65384;BME280;51986;52.788;41.368;2023-02-15T00:17:40;98898.72;;;-5.09;63.79
65384;BME280;51986;52.788;41.368;2023-02-15T00:20:07;98908.47;;;-5.28;63.22
65384;BME280;51986;52.788;41.368;2023-02-15T00:22:34;98902.53;;;-5.38;63.33
65384;BME280;51986;52.788;41.368;2023-02-15T00:25:02;98879.97;;;-5.41;63.59
65384;BME280;51986;52.788;41.368;2023-02-15T00:27:29;98909.00;;;-5.09;63.24
65384;BME280;51986;52.788;41.368;2023-02-15T00:29:55;98892.31;;;-5.20;63.54
65384;BME280;51986;52.788;41.368;2023-02-15T00:32:23;98881.03;;;-5.42;63.11
65384;BME280;51986;52.788;41.368;2023-02-15T00:34:49;98892.38;;;-5.43;63.25
65384;BME280;51986;52.788;41.368;2023-02-15T00:37:16;98919.66;;;-5.33;63.62
65384;BME280;51986;52.788;41.368;2023-02-15T00:39:46;98908.03;;;-5.53;63.94
65384;BME280;51986;52.788;41.368;2023-02-15T00:42:13;98906.88;;;-5.38;63.76
65384;BME280;51986;52.788;41.368;2023-02-15T00:44:40;98904.75;;;-5.45;63.17
65384;BME280;51986;52.788;41.368;2023-02-15T00:47:07;98905.91;;;-5.28;63.54
65384;BME280;51986;52.788;41.368;2023-02-15T00:49:34;98889.63;;;-5.46;63.53
65384;BME280;51986;52.788;41.368;2023-02-15T00:52:01;98897.88;;;-5.58;64.17
65384;BME280;51986;52.788;41.368;2023-02-15T00:54:28;98908.16;;;-5.58;63.91
65384;BME280;51986;52.788;41.368;2023-02-15T00:56:55;98918.09;;;-5.65;64.01
65384;BME280;51986;52.788;41.368;2023-02-15T00:59:22;98906.19;;;-5.83;64.32
65384;BME280;51986;52.788;41.368;2023-02-15T01:01:49;98899.28;;;-5.74;64.67
65384;BME280;51986;52.788;41.368;2023-02-15T01:04:18;98925.56;;;-5.77;65.45
65384;BME280;51986;52.788;41.368;2023-02-15T01:06:45;98902.91;;;-5.75;64.85
65384;BME280;51986;52.788;41.368;2023-02-15T01:09:12;98903.44;;;-5.65;64.29
65384;BME280;51986;52.788;41.368;2023-02-15T01:11:39;98915.47;;;-5.74;65.10
65384;BME280;51986;52.788;41.368;2023-02-15T01:14:06;98909.00;;;-5.71;64.87
65384;BME280;51986;52.788;41.368;2023-02-15T01:16:37;98925.78;;;-5.88;64.84
65384;BME280;51986;52.788;41.368;2023-02-15T01:19:04;98921.34;;;-5.73;63.74
65384;BME280;51986;52.788;41.368;2023-02-15T01:21:31;98910.03;;;-5.72;63.50
65384;BME280;51986;52.788;41.368;2023-02-15T01:23:58;98917.16;;;-5.69;63.31
65384;BME280;51986;52.788;41.368;2023-02-15T01:26:26;98916.47;;;-5.61;63.00
65384;BME280;51986;52.788;41.368;2023-02-15T01:28:53;98911.88;;;-5.42;62.58
65384;BME280;51986;52.788;41.368;2023-02-15T01:31:22;98921.88;;;-5.63;63.34
65384;BME280;51986;52.788;41.368;2023-02-15T01:33:49;98928.56;;;-5.61;63.32
65384;BME280;51986;52.788;41.368;2023-02-15T01:36:16;98943.31;;;-5.67;63.08
65384;BME280;51986;52.788;41.368;2023-02-15T01:38:43;98943.53;;;-5.77;63.91
65384;BME280;51986;52.788;41.368;2023-02-15T01:41:10;98928.28;;;-5.96;64.13
65384;BME280;51986;52.788;41.368;2023-02-15T01:43:49;98937.78;;;-5.97;63.85
65384;BME280;51986;52.788;41.368;2023-02-15T01:46:20;98927.44;;;-6.05;64.39
65384;BME280;51986;52.788;41.368;2023-02-15T01:48:54;98922.75;;;-5.90;63.79
65384;BME280;51986;52.788;41.368;2023-02-15T01:51:24;98923.59;;;-5.80;63.62
65384;BME280;51986;52.788;41.368;2023-02-15T01:54:05;98923.25;;;-6.01;64.65
65384;BME280;51986;52.788;41.368;2023-02-15T01:56:37;98936.19;;;-5.70;63.56
65384;BME280;51986;52.788;41.368;2023-02-15T01:59:11;98928.00;;;-5.95;64.30
65384;BME280;51986;52.788;41.368;2023-02-15T02:01:41;98923.63;;;-6.30;64.85
65384;BME280;51986;52.788;41.368;2023-02-15T02:04:24;98928.59;;;-5.98;64.47
65384;BME280;51986;52.788;41.368;2023-02-15T02:06:53;98934.25;;;-6.23;63.76
65384;BME280;51986;52.788;41.368;2023-02-15T02:09:21;98933.69;;;-6.34;63.89
65384;BME280;51986;52.788;41.368;2023-02-15T02:11:48;98920.94;;;-6.25;64.31
65384;BME280;51986;52.788;41.368;2023-02-15T02:14:16;98936.94;;;-6.28;64.90
65384;BME280;51986;52.788;41.368;2023-02-15T02:30:49;98941.09;;;-5.82;62.55
65384;BME280;51986;52.788;41.368;2023-02-15T02:33:32;98964.91;;;-5.68;62.53
65384;BME280;51986;52.788;41.368;2023-02-15T02:39:33;98951.25;;;-6.00;64.00
65384;BME280;51986;52.788;41.368;2023-02-15T02:45:25;98961.19;;;-5.84;64.02
65384;BME280;51986;52.788;41.368;2023-02-15T02:48:03;98965.56;;;-5.85;63.42
65384;BME280;51986;52.788;41.368;2023-02-15T02:50:33;98965.66;;;-5.90;63.79
65384;BME280;51986;52.788;41.368;2023-02-15T02:53:00;98943.03;;;-6.24;65.37
65384;BME280;51986;52.788;41.368;2023-02-15T02:55:47;98991.25;;;-5.85;64.42
65384;BME280;51986;52.788;41.368;2023-02-15T02:58:21;98979.75;;;-5.65;63.54
65384;BME280;51986;52.788;41.368;2023-02-15T03:00:59;98995.84;;;-5.73;63.87
65384;BME280;51986;52.788;41.368;2023-02-15T03:03:47;98986.56;;;-5.83;63.84
65384;BME280;51986;52.788;41.368;2023-02-15T03:06:23;98991.28;;;-6.12;65.49
65384;BME280;51986;52.788;41.368;2023-02-15T03:09:04;99006.50;;;-6.16;65.53
65384;BME280;51986;52.788;41.368;2023-02-15T03:11:33;98984.53;;;-6.08;64.64
65384;BME280;51986;52.788;41.368;2023-02-15T03:14:01;99014.56;;;-5.95;65.08
65384;BME280;51986;52.788;41.368;2023-02-15T03:16:31;99002.00;;;-5.97;64.77
65384;BME280;51986;52.788;41.368;2023-02-15T03:19:10;98989.91;;;-5.96;65.51
65384;BME280;51986;52.788;41.368;2023-02-15T03:21:50;99017.47;;;-5.74;64.56
65384;BME280;51986;52.788;41.368;2023-02-15T03:24:24;98990.38;;;-5.58;64.06
65384;BME280;51986;52.788;41.368;2023-02-15T03:26:54;99011.06;;;-5.63;63.86
65384;BME280;51986;52.788;41.368;2023-02-15T03:29:25;99022.50;;;-5.69;64.16
65384;BME280;51986;52.788;41.368;2023-02-15T03:31:59;98992.50;;;-5.60;63.48
65384;BME280;51986;52.788;41.368;2023-02-15T03:34:28;99021.44;;;-5.68;63.82
65384;BME280;51986;52.788;41.368;2023-02-15T03:39:45;99007.88;;;-5.46;63.17
65384;BME280;51986;52.788;41.368;2023-02-15T03:45:08;99018.91;;;-5.46;63.01
65384;BME280;51986;52.788;41.368;2023-02-15T03:47:43;99024.59;;;-5.71;63.24
65384;BME280;51986;52.788;41.368;2023-02-15T03:52:41;99048.50;;;-5.48;62.75
65384;BME280;51986;52.788;41.368;2023-02-15T03:55:08;99039.34;;;-5.41;62.13
65384;BME280;51986;52.788;41.368;2023-02-15T03:57:36;99045.88;;;-5.57;62.91
65384;BME280;51986;52.788;41.368;2023-02-15T04:00:14;99045.06;;;-5.66;63.83
65384;BME280;51986;52.788;41.368;2023-02-15T04:05:40;99062.59;;;-5.96;64.95
65384;BME280;51986;52.788;41.368;2023-02-15T04:08:07;99041.88;;;-5.99;63.90
65384;BME280;51986;52.788;41.368;2023-02-15T04:10:35;99064.69;;;-6.11;64.99
65384;BME280;51986;52.788;41.368;2023-02-15T04:13:02;99061.00;;;-6.19;65.35
65384;BME280;51986;52.788;41.368;2023-02-15T04:15:29;99055.09;;;-6.20;65.18
65384;BME280;51986;52.788;41.368;2023-02-15T04:17:56;99068.81;;;-6.24;65.40
65384;BME280;51986;52.788;41.368;2023-02-15T04:20:23;99059.00;;;-6.36;65.97
65384;BME280;51986;52.788;41.368;2023-02-15T04:22:50;99068.59;;;-6.28;66.20
65384;BME280;51986;52.788;41.368;2023-02-15T04:25:17;99062.22;;;-6.17;66.19
65384;BME280;51986;52.788;41.368;2023-02-15T04:27:46;99076.69;;;-6.07;65.54
65384;BME280;51986;52.788;41.368;2023-02-15T04:30:15;99057.59;;;-6.15;64.75
65384;BME280;51986;52.788;41.368;2023-02-15T04:32:42;99078.84;;;-5.86;64.63
65384;BME280;51986;52.788;41.368;2023-02-15T04:35:10;99074.97;;;-6.25;65.23
65384;BME280;51986;52.788;41.368;2023-02-15T04:37:38;99090.00;;;-6.19;65.26
65384;BME280;51986;52.788;41.368;2023-02-15T04:40:07;99077.53;;;-6.11;64.90
65384;BME280;51986;52.788;41.368;2023-02-15T04:42:34;99072.69;;;-6.13;65.68
65384;BME280;51986;52.788;41.368;2023-02-15T04:45:01;99079.53;;;-6.08;65.20
65384;BME280;51986;52.788;41.368;2023-02-15T04:47:28;99091.91;;;-6.10;65.37
65384;BME280;51986;52.788;41.368;2023-02-15T04:49:56;99064.13;;;-5.95;64.61
65384;BME280;51986;52.788;41.368;2023-02-15T04:52:24;99084.69;;;-5.95;63.97
65384;BME280;51986;52.788;41.368;2023-02-15T04:54:51;99138.09;;;-6.10;64.96
65384;BME280;51986;52.788;41.368;2023-02-15T04:57:18;99081.94;;;-5.62;63.77
65384;BME280;51986;52.788;41.368;2023-02-15T04:59:45;99105.00;;;-5.71;64.03
65384;BME280;51986;52.788;41.368;2023-02-15T05:02:12;99093.50;;;-5.73;63.70
65384;BME280;51986;52.788;41.368;2023-02-15T05:04:39;99098.38;;;-5.85;63.81
65384;BME280;51986;52.788;41.368;2023-02-15T05:07:06;99085.00;;;-5.60;63.11
65384;BME280;51986;52.788;41.368;2023-02-15T05:09:33;99098.72;;;-5.65;63.40
65384;BME280;51986;52.788;41.368;2023-02-15T05:12:00;99104.25;;;-5.71;63.22
65384;BME280;51986;52.788;41.368;2023-02-15T05:14:27;99090.59;;;-5.58;63.05
65384;BME280;51986;52.788;41.368;2023-02-15T05:16:54;99086.56;;;-5.86;63.71
65384;BME280;51986;52.788;41.368;2023-02-15T05:19:21;99103.31;;;-5.75;63.85
65384;BME280;51986;52.788;41.368;2023-02-15T05:21:48;99102.50;;;-5.62;62.91
65384;BME280;51986;52.788;41.368;2023-02-15T05:24:15;99097.09;;;-5.60;62.39
65384;BME280;51986;52.788;41.368;2023-02-15T05:26:42;99109.41;;;-5.99;63.66
65384;BME280;51986;52.788;41.368;2023-02-15T05:29:09;99107.31;;;-5.97;63.76
65384;BME280;51986;52.788;41.368;2023-02-15T05:31:37;99093.22;;;-5.85;63.39
65384;BME280;51986;52.788;41.368;2023-02-15T05:34:04;99107.84;;;-5.72;63.10
65384;BME280;51986;52.788;41.368;2023-02-15T05:36:31;99094.97;;;-5.58;62.82
65384;BME280;51986;52.788;41.368;2023-02-15T05:38:58;99123.34;;;-5.50;62.04
65384;BME280;51986;52.788;41.368;2023-02-15T05:41:25;99084.03;;;-5.50;61.74
65384;BME280;51986;52.788;41.368;2023-02-15T05:43:55;99102.47;;;-5.48;62.16
65384;BME280;51986;52.788;41.368;2023-02-15T05:46:22;99104.44;;;-5.81;62.02
65384;BME280;51986;52.788;41.368;2023-02-15T05:48:49;99132.47;;;-5.57;62.00
65384;BME280;51986;52.788;41.368;2023-02-15T05:51:17;99112.75;;;-5.48;61.42
65384;BME280;51986;52.788;41.368;2023-02-15T05:53:44;99113.75;;;-5.22;61.10
65384;BME280;51986;52.788;41.368;2023-02-15T05:56:12;99095.44;;;-5.43;62.19
65384;BME280;51986;52.788;41.368;2023-02-15T05:58:40;99095.59;;;-5.03;60.67
65384;BME280;51986;52.788;41.368;2023-02-15T06:03:34;99103.19;;;-4.75;60.08
65384;BME280;51986;52.788;41.368;2023-02-15T06:06:02;99122.19;;;-4.85;59.94
65384;BME280;51986;52.788;41.368;2023-02-15T06:08:30;99117.31;;;-4.87;60.05
65384;BME280;51986;52.788;41.368;2023-02-15T06:10:57;99106.78;;;-4.54;58.64
65384;BME280;51986;52.788;41.368;2023-02-15T06:13:25;99101.44;;;-4.66;59.25
65384;BME280;51986;52.788;41.368;2023-02-15T06:15:52;99111.13;;;-4.32;58.06
65384;BME280;51986;52.788;41.368;2023-02-15T06:18:19;99130.00;;;-4.05;57.78
65384;BME280;51986;52.788;41.368;2023-02-15T06:20:46;99123.63;;;-4.17;58.01
65384;BME280;51986;52.788;41.368;2023-02-15T06:23:13;99109.22;;;-4.09;57.10
65384;BME280;51986;52.788;41.368;2023-02-15T06:25:40;99119.22;;;-4.16;56.53
65384;BME280;51986;52.788;41.368;2023-02-15T06:28:07;99098.41;;;-3.89;56.59
65384;BME280;51986;52.788;41.368;2023-02-15T06:30:34;99094.00;;;-3.71;56.47
65384;BME280;51986;52.788;41.368;2023-02-15T06:33:01;99128.28;;;-3.79;55.92
65384;BME280;51986;52.788;41.368;2023-02-15T06:35:29;99119.78;;;-3.71;55.73
65384;BME280;51986;52.788;41.368;2023-02-15T06:37:56;99114.63;;;-3.71;55.75
65384;BME280;51986;52.788;41.368;2023-02-15T06:40:23;99105.75;;;-3.39;54.95
65384;BME280;51986;52.788;41.368;2023-02-15T06:42:50;99098.88;;;-3.78;55.91
65384;BME280;51986;52.788;41.368;2023-02-15T06:45:17;99122.47;;;-3.93;55.77
65384;BME280;51986;52.788;41.368;2023-02-15T06:47:44;99099.84;;;-4.05;56.07
65384;BME280;51986;52.788;41.368;2023-02-15T06:50:11;99116.75;;;-3.82;56.49
65384;BME280;51986;52.788;41.368;2023-02-15T06:52:38;99101.19;;;-3.59;54.99
65384;BME280;51986;52.788;41.368;2023-02-15T06:55:05;99123.78;;;-3.47;55.20
65384;BME280;51986;52.788;41.368;2023-02-15T06:57:32;99124.25;;;-3.37;54.73
65384;BME280;51986;52.788;41.368;2023-02-15T06:59:59;99126.56;;;-3.92;56.13
65384;BME280;51986;52.788;41.368;2023-02-15T07:02:26;99125.22;;;-3.81;56.22
65384;BME280;51986;52.788;41.368;2023-02-15T07:04:53;99107.31;;;-4.03;55.94
65384;BME280;51986;52.788;41.368;2023-02-15T07:07:20;99121.28;;;-3.87;56.13
65384;BME280;51986;52.788;41.368;2023-02-15T07:09:47;99116.44;;;-3.89;55.94
65384;BME280;51986;52.788;41.368;2023-02-15T07:12:14;99134.28;;;-4.01;56.67
65384;BME280;51986;52.788;41.368;2023-02-15T07:14:41;99111.66;;;-4.04;56.18
65384;BME280;51986;52.788;41.368;2023-02-15T07:17:08;99125.22;;;-3.81;56.15
65384;BME280;51986;52.788;41.368;2023-02-15T07:19:55;99115.25;;;-4.22;56.89
65384;BME280;51986;52.788;41.368;2023-02-15T07:22:22;99128.94;;;-4.13;56.60
65384;BME280;51986;52.788;41.368;2023-02-15T07:24:49;99128.31;;;-4.10;56.54
65384;BME280;51986;52.788;41.368;2023-02-15T07:27:16;99104.59;;;-3.90;57.56
65384;BME280;51986;52.788;41.368;2023-02-15T07:29:43;99126.06;;;-3.46;55.06
65384;BME280;51986;52.788;41.368;2023-02-15T07:32:10;99109.97;;;-3.51;56.59
65384;BME280;51986;52.788;41.368;2023-02-15T07:34:37;99137.06;;;-3.71;55.83
65384;BME280;51986;52.788;41.368;2023-02-15T07:37:04;99115.47;;;-3.36;55.75
65384;BME280;51986;52.788;41.368;2023-02-15T07:39:31;99132.41;;;-3.52;55.74
65384;BME280;51986;52.788;41.368;2023-02-15T07:41:59;99120.91;;;-3.28;54.99
65384;BME280;51986;52.788;41.368;2023-02-15T07:44:29;99117.06;;;-2.70;53.52
65384;BME280;51986;52.788;41.368;2023-02-15T07:46:58;99133.50;;;-2.92;53.60
65384;BME280;51986;52.788;41.368;2023-02-15T07:49:24;99114.53;;;-2.79;52.67
65384;BME280;51986;52.788;41.368;2023-02-15T07:51:51;99117.06;;;-2.15;51.72
65384;BME280;51986;52.788;41.368;2023-02-15T07:54:18;99114.34;;;-2.18;51.41
65384;BME280;51986;52.788;41.368;2023-02-15T07:56:45;99123.09;;;-2.02;51.93
65384;BME280;51986;52.788;41.368;2023-02-15T07:59:12;99123.41;;;-2.04;51.19
65384;BME280;51986;52.788;41.368;2023-02-15T08:01:40;99120.59;;;-2.19;50.87
65384;BME280;51986;52.788;41.368;2023-02-15T08:04:07;99121.63;;;-2.12;51.12
65384;BME280;51986;52.788;41.368;2023-02-15T08:06:35;99113.06;;;-2.42;51.13
65384;BME280;51986;52.788;41.368;2023-02-15T08:09:07;99132.41;;;-2.65;51.66
65384;BME280;51986;52.788;41.368;2023-02-15T08:11:36;99098.53;;;-2.17;51.26
65384;BME280;51986;52.788;41.368;2023-02-15T08:14:16;99125.22;;;-2.42;51.17
65384;BME280;51986;52.788;41.368;2023-02-15T08:16:54;99119.03;;;-2.50;50.86
65384;BME280;51986;52.788;41.368;2023-02-15T08:19:27;99136.59;;;-2.35;51.35
65384;BME280;51986;52.788;41.368;2023-02-15T08:21:57;99150.28;;;-2.34;51.76
65384;BME280;51986;52.788;41.368;2023-02-15T08:24:27;99137.97;;;-2.37;51.16
65384;BME280;51986;52.788;41.368;2023-02-15T08:26:54;99147.31;;;-2.80;51.60
65384;BME280;51986;52.788;41.368;2023-02-15T08:29:24;99155.53;;;-2.77;51.83
65384;BME280;51986;52.788;41.368;2023-02-15T08:31:57;99145.34;;;-2.83;51.79
65384;BME280;51986;52.788;41.368;2023-02-15T08:34:24;99151.72;;;-3.15;51.68
65384;BME280;51986;52.788;41.368;2023-02-15T08:36:51;99141.69;;;-2.90;51.29
65384;BME280;51986;52.788;41.368;2023-02-15T08:39:18;99155.19;;;-2.85;51.09
65384;BME280;51986;52.788;41.368;2023-02-15T08:41:49;99167.81;;;-2.83;51.47
65384;BME280;51986;52.788;41.368;2023-02-15T08:44:18;99148.09;;;-3.05;52.54
65384;BME280;51986;52.788;41.368;2023-02-15T08:46:47;99149.75;;;-2.92;52.05
65384;BME280;51986;52.788;41.368;2023-02-15T08:49:20;99099.38;;;-3.15;52.04
65384;BME280;51986;52.788;41.368;2023-02-15T08:51:48;99168.88;;;-3.01;51.61
65384;BME280;51986;52.788;41.368;2023-02-15T08:54:18;99155.03;;;-2.80;51.99
65384;BME280;51986;52.788;41.368;2023-02-15T08:56:46;99132.75;;;-3.10;52.04
65384;BME280;51986;52.788;41.368;2023-02-15T08:59:18;99168.25;;;-2.72;51.52
65384;BME280;51986;52.788;41.368;2023-02-15T09:01:47;99164.66;;;-2.89;51.76
65384;BME280;51986;52.788;41.368;2023-02-15T09:04:14;99158.41;;;-3.14;51.69
65384;BME280;51986;52.788;41.368;2023-02-15T09:06:42;99166.63;;;-3.03;51.87
65384;BME280;51986;52.788;41.368;2023-02-15T09:09:10;99161.28;;;-3.15;51.62
65384;BME280;51986;52.788;41.368;2023-02-15T09:11:40;99163.88;;;-2.98;51.03
65384;BME280;51986;52.788;41.368;2023-02-15T09:14:13;99162.34;;;-2.99;50.47
65384;BME280;51986;52.788;41.368;2023-02-15T09:16:42;99164.47;;;-3.36;51.18
65384;BME280;51986;52.788;41.368;2023-02-15T09:19:09;99171.75;;;-3.29;50.52
65384;BME280;51986;52.788;41.368;2023-02-15T09:21:37;99150.78;;;-3.27;50.85
65384;BME280;51986;52.788;41.368;2023-02-15T09:24:08;99151.75;;;-2.89;50.40
65384;BME280;51986;52.788;41.368;2023-02-15T09:26:38;99170.53;;;-3.40;51.04
65384;BME280;51986;52.788;41.368;2023-02-15T09:29:06;99163.72;;;-3.19;50.38
65384;BME280;51986;52.788;41.368;2023-02-15T09:31:38;99172.38;;;-2.89;50.37
65384;BME280;51986;52.788;41.368;2023-02-15T09:34:05;99154.44;;;-3.28;50.52
65384;BME280;51986;52.788;41.368;2023-02-15T09:36:36;99154.59;;;-2.99;50.35
65384;BME280;51986;52.788;41.368;2023-02-15T09:39:16;99164.03;;;-2.77;49.96
65384;BME280;51986;52.788;41.368;2023-02-15T09:45:07;99161.00;;;-2.88;50.27
65384;BME280;51986;52.788;41.368;2023-02-15T09:56:39;99170.69;;;-2.85;49.88
65384;BME280;51986;52.788;41.368;2023-02-15T10:05:14;99198.94;;;-2.80;49.65
65384;BME280;51986;52.788;41.368;2023-02-15T10:08:06;99177.03;;;-2.39;48.83
65384;BME280;51986;52.788;41.368;2023-02-15T10:18:39;99170.03;;;-2.47;48.25
65384;BME280;51986;52.788;41.368;2023-02-15T10:26:46;99200.75;;;-2.54;48.75
65384;BME280;51986;52.788;41.368;2023-02-15T10:32:01;99191.34;;;-2.59;48.33
65384;BME280;51986;52.788;41.368;2023-02-15T10:35:10;99188.50;;;-2.10;48.51
65384;BME280;51986;52.788;41.368;2023-02-15T10:40:32;99195.59;;;-2.45;49.22
65384;BME280;51986;52.788;41.368;2023-02-15T10:43:26;99209.63;;;-2.08;48.66
65384;BME280;51986;52.788;41.368;2023-02-15T10:46:22;99195.66;;;-2.07;48.17
65384;BME280;51986;52.788;41.368;2023-02-15T11:00:58;99215.53;;;-1.99;46.97
65384;BME280;51986;52.788;41.368;2023-02-15T11:06:12;99212.16;;;-1.91;47.25
65384;BME280;51986;52.788;41.368;2023-02-15T11:08:45;99225.06;;;-1.82;46.58
65384;BME280;51986;52.788;41.368;2023-02-15T11:11:43;99201.34;;;-2.48;47.74
65384;BME280;51986;52.788;41.368;2023-02-15T11:14:21;99225.50;;;-2.62;47.80
65384;BME280;51986;52.788;41.368;2023-02-15T11:16:54;99216.53;;;-2.30;47.47
65384;BME280;51986;52.788;41.368;2023-02-15T11:19:28;99216.56;;;-2.73;47.63
65384;BME280;51986;52.788;41.368;2023-02-15T11:22:05;99233.13;;;-2.83;47.59
65384;BME280;51986;52.788;41.368;2023-02-15T11:24:40;99222.47;;;-2.90;47.54
65384;BME280;51986;52.788;41.368;2023-02-15T11:29:52;99235.81;;;-3.05;49.11
65384;BME280;51986;52.788;41.368;2023-02-15T11:40:28;99233.41;;;-2.93;48.97
65384;BME280;51986;52.788;41.368;2023-02-15T11:42:58;99236.47;;;-2.82;48.75
65384;BME280;51986;52.788;41.368;2023-02-15T11:45:29;99224.72;;;-3.32;49.62
65384;BME280;51986;52.788;41.368;2023-02-15T11:47:58;99261.97;;;-3.55;50.74
65384;BME280;51986;52.788;41.368;2023-02-15T11:50:29;99246.78;;;-3.48;49.93
65384;BME280;51986;52.788;41.368;2023-02-15T11:53:01;99251.16;;;-3.00;50.28
65384;BME280;51986;52.788;41.368;2023-02-15T11:55:31;99262.84;;;-2.94;48.97
65384;BME280;51986;52.788;41.368;2023-02-15T11:58:22;99251.13;;;-3.09;49.26
65384;BME280;51986;52.788;41.368;2023-02-15T12:00:53;99227.50;;;-3.02;49.19
65384;BME280;51986;52.788;41.368;2023-02-15T12:03:39;99273.94;;;-2.85;49.81
65384;BME280;51986;52.788;41.368;2023-02-15T12:06:35;99278.53;;;-2.82;48.97
65384;BME280;51986;52.788;41.368;2023-02-15T12:09:13;99258.88;;;-3.09;49.85
65384;BME280;51986;52.788;41.368;2023-02-15T12:11:44;99260.06;;;-3.23;50.05
65384;BME280;51986;52.788;41.368;2023-02-15T12:14:12;99268.44;;;-3.09;49.77
65384;BME280;51986;52.788;41.368;2023-02-15T12:22:24;99273.97;;;-2.59;49.22
65384;BME280;51986;52.788;41.368;2023-02-15T12:24:56;99262.28;;;-2.65;48.52
65384;BME280;51986;52.788;41.368;2023-02-15T12:27:33;99285.38;;;-2.68;48.75
65384;BME280;51986;52.788;41.368;2023-02-15T12:30:18;99277.44;;;-2.98;49.20
65384;BME280;51986;52.788;41.368;2023-02-15T12:33:18;99279.44;;;-2.77;48.83
65384;BME280;51986;52.788;41.368;2023-02-15T12:36:11;99283.06;;;-2.96;49.22
65384;BME280;51986;52.788;41.368;2023-02-15T12:39:23;99286.22;;;-2.99;48.75
65384;BME280;51986;52.788;41.368;2023-02-15T12:44:24;99303.66;;;-3.22;49.80
65384;BME280;51986;52.788;41.368;2023-02-15T12:47:18;99305.06;;;-2.98;49.84
65384;BME280;51986;52.788;41.368;2023-02-15T12:52:38;99314.41;;;-3.20;49.01
65384;BME280;51986;52.788;41.368;2023-02-15T12:55:32;99304.03;;;-3.37;50.09
65384;BME280;51986;52.788;41.368;2023-02-15T12:58:16;99308.16;;;-3.36;49.48
65384;BME280;51986;52.788;41.368;2023-02-15T13:00:44;99325.69;;;-3.47;50.19
65384;BME280;51986;52.788;41.368;2023-02-15T13:03:20;99307.13;;;-3.89;49.92
65384;BME280;51986;52.788;41.368;2023-02-15T13:05:51;99329.28;;;-3.57;49.58
65384;BME280;51986;52.788;41.368;2023-02-15T13:11:12;99329.97;;;-3.73;50.41
65384;BME280;51986;52.788;41.368;2023-02-15T13:13:57;99329.41;;;-3.62;50.04
65384;BME280;51986;52.788;41.368;2023-02-15T13:16:37;99315.16;;;-3.59;49.50
65384;BME280;51986;52.788;41.368;2023-02-15T13:19:18;99326.38;;;-3.64;49.92
65384;BME280;51986;52.788;41.368;2023-02-15T13:21:48;99317.44;;;-3.58;49.28
65384;BME280;51986;52.788;41.368;2023-02-15T13:27:07;99345.22;;;-4.08;50.21
65384;BME280;51986;52.788;41.368;2023-02-15T13:29:51;99315.78;;;-4.29;49.79
65384;BME280;51986;52.788;41.368;2023-02-15T13:32:40;99321.53;;;-4.32;51.00
65384;BME280;51986;52.788;41.368;2023-02-15T13:35:16;99349.69;;;-4.36;50.59
65384;BME280;51986;52.788;41.368;2023-02-15T13:40:48;99356.06;;;-4.47;50.84
65384;BME280;51986;52.788;41.368;2023-02-15T13:46:42;99347.69;;;-4.39;50.21
65384;BME280;51986;52.788;41.368;2023-02-15T13:49:25;99351.91;;;-4.57;51.12
65384;BME280;51986;52.788;41.368;2023-02-15T13:52:22;99396.94;;;-4.68;50.52
65384;BME280;51986;52.788;41.368;2023-02-15T13:55:34;99382.72;;;-5.07;52.23
65384;BME280;51986;52.788;41.368;2023-02-15T14:01:31;99392.59;;;-5.42;53.16
65384;BME280;51986;52.788;41.368;2023-02-15T14:12:46;99378.69;;;-5.73;53.61
65384;BME280;51986;52.788;41.368;2023-02-15T14:15:35;99372.81;;;-6.11;53.91
65384;BME280;51986;52.788;41.368;2023-02-15T14:18:27;99398.66;;;-6.03;53.92
65384;BME280;51986;52.788;41.368;2023-02-15T14:21:19;99380.59;;;-5.98;54.16
65384;BME280;51986;52.788;41.368;2023-02-15T14:24:07;99375.31;;;-5.88;53.62
65384;BME280;51986;52.788;41.368;2023-02-15T14:26:45;99418.66;;;-5.81;53.66
65384;BME280;51986;52.788;41.368;2023-02-15T14:35:00;99414.34;;;-5.85;53.94
65384;BME280;51986;52.788;41.368;2023-02-15T14:43:34;99427.47;;;-5.54;52.40
65384;BME280;51986;52.788;41.368;2023-02-15T14:49:26;99440.72;;;-5.80;53.79
65384;BME280;51986;52.788;41.368;2023-02-15T14:51:56;99419.56;;;-5.91;54.15
65384;BME280;51986;52.788;41.368;2023-02-15T15:00:36;99448.06;;;-6.11;54.55
65384;BME280;51986;52.788;41.368;2023-02-15T15:02:45;99443.06;;;-6.02;54.13
65384;BME280;51986;52.788;41.368;2023-02-15T15:07:54;99422.44;;;-6.16;54.35
65384;BME280;51986;52.788;41.368;2023-02-15T15:12:57;99462.13;;;-6.27;55.14
65384;BME280;51986;52.788;41.368;2023-02-15T15:18:10;99455.41;;;-6.23;54.81
65384;BME280;51986;52.788;41.368;2023-02-15T15:20:56;99463.44;;;-6.30;55.19
65384;BME280;51986;52.788;41.368;2023-02-15T15:23:39;99449.25;;;-6.22;55.28
65384;BME280;51986;52.788;41.368;2023-02-15T15:26:31;99469.75;;;-6.41;55.58
65384;BME280;51986;52.788;41.368;2023-02-15T15:29:05;99461.69;;;-6.34;55.55
65384;BME280;51986;52.788;41.368;2023-02-15T15:31:47;99473.88;;;-6.45;55.82
65384;BME280;51986;52.788;41.368;2023-02-15T15:34:41;99468.59;;;-6.54;55.27
65384;BME280;51986;52.788;41.368;2023-02-15T15:40:42;99480.81;;;-6.46;55.51
65384;BME280;51986;52.788;41.368;2023-02-15T15:48:40;99485.38;;;-6.90;56.98
65384;BME280;51986;52.788;41.368;2023-02-15T15:51:24;99486.06;;;-6.80;56.93
65384;BME280;51986;52.788;41.368;2023-02-15T15:53:57;99502.69;;;-6.77;56.81
65384;BME280;51986;52.788;41.368;2023-02-15T15:56:27;99488.97;;;-6.92;57.33
65384;BME280;51986;52.788;41.368;2023-02-15T15:59:05;99505.56;;;-7.13;57.39
65384;BME280;51986;52.788;41.368;2023-02-15T16:01:41;99510.66;;;-7.08;58.41
65384;BME280;51986;52.788;41.368;2023-02-15T16:04:14;99503.28;;;-6.85;57.25